Time;durP1;ratioP1;P1;durP2;ratioP2;P2;SDS_P1;SDS_P2;PMS_P1;PMS_P2;Temp;Humidity;BMP_temperature;BMP_pressure;BME280_temperature;BME280_humidity;BME280_pressure;Samples;Min_cycle;Max_cycle;Signal;HPM_P1;HPM_P2
2021/03/22 00:01:12;;;;;;;4.97;2.22;;;6.60;53.70;;;;;;5058833;28;20495;-71
2021/03/22 00:03:37;;;;;;;;;;;6.70;54.00;;;;;;5064201;28;20041;-71
2021/03/22 00:06:03;;;;;;;4.50;1.52;;;6.70;54.00;;;;;;5060498;28;19909;-71
2021/03/22 00:08:29;;;;;;;4.70;1.80;;;6.60;53.00;;;;;;5074408;28;20466;-71
2021/03/22 00:10:54;;;;;;;4.05;1.92;;;6.50;53.40;;;;;;5051126;28;20021;-71
2021/03/22 00:13:22;;;;;;;3.78;1.98;;;6.60;54.00;;;;;;5034120;28;20083;-71
2021/03/22 00:15:49;;;;;;;4.95;1.95;;;6.50;53.30;;;;;;5046616;28;20024;-71
2021/03/22 00:18:19;;;;;;;7.57;2.35;;;6.50;53.80;;;;;;5040526;28;20022;-70
2021/03/22 00:20:45;;;;;;;4.13;1.92;;;6.50;54.00;;;;;;5040715;28;20025;-70
2021/03/22 00:23:11;;;;;;;3.67;1.77;;;6.50;53.90;;;;;;5055593;28;20095;-70
2021/03/22 00:25:37;;;;;;;4.40;1.80;;;6.40;54.10;;;;;;5065882;28;20056;-70
2021/03/22 00:28:03;;;;;;;4.80;1.63;;;6.40;54.30;;;;;;5054390;28;20449;-70
2021/03/22 00:30:33;;;;;;;5.38;1.50;;;6.40;54.30;;;;;;5052361;28;20021;-71
2021/03/22 00:32:59;;;;;;;2.88;1.48;;;6.30;54.60;;;;;;5053969;28;20021;-71
2021/03/22 00:35:25;;;;;;;3.45;1.40;;;6.40;54.50;;;;;;5055029;28;20048;-69
2021/03/22 00:37:51;;;;;;;3.40;1.40;;;6.30;54.60;;;;;;5072848;28;20098;-70
2021/03/22 00:40:19;;;;;;;2.92;1.00;;;6.30;54.60;;;;;;5070368;28;20033;-70
2021/03/22 00:42:44;;;;;;;4.78;1.65;;;6.30;54.90;;;;;;5089245;28;20415;-70
2021/03/22 00:45:11;;;;;;;6.45;1.95;;;6.20;54.90;;;;;;5069272;28;20112;-70
2021/03/22 00:47:37;;;;;;;2.50;1.25;;;6.20;55.00;;;;;;5074271;28;20032;-70
2021/03/22 00:50:05;;;;;;;2.42;1.15;;;6.30;55.30;;;;;;5061704;28;20524;-70
2021/03/22 00:52:30;;;;;;;5.60;2.00;;;6.30;55.30;;;;;;5033718;28;20088;-71
2021/03/22 00:54:56;;;;;;;3.15;1.33;;;6.30;55.50;;;;;;5034087;28;20409;-72
2021/03/22 00:57:21;;;;;;;4.47;1.33;;;6.30;55.60;;;;;;5072014;28;20033;-71
2021/03/22 00:59:47;;;;;;;2.47;1.50;;;6.20;55.80;;;;;;5053803;28;20053;-71
2021/03/22 01:02:12;;;;;;;5.85;1.88;;;6.20;55.90;;;;;;5052528;28;20032;-71
2021/03/22 01:04:38;;;;;;;5.03;1.48;;;6.20;56.20;;;;;;5053501;28;20028;-71
2021/03/22 01:07:04;;;;;;;5.03;1.77;;;6.20;56.50;;;;;;5058076;28;20083;-71
2021/03/22 01:09:30;;;;;;;4.38;1.83;;;6.20;56.60;;;;;;5032529;28;20097;-72
2021/03/22 01:11:56;;;;;;;4.13;1.70;;;6.20;56.60;;;;;;5049275;28;20032;-71
2021/03/22 01:14:22;;;;;;;6.10;1.73;;;6.20;56.60;;;;;;5053255;28;20529;-71
2021/03/22 01:16:47;;;;;;;5.03;1.40;;;6.20;56.60;;;;;;5064200;28;20032;-72
2021/03/22 01:19:18;;;;;;;5.03;1.70;;;6.20;56.80;;;;;;5070071;28;20033;-71
2021/03/22 01:21:49;;;;;;;5.97;1.60;;;6.20;56.80;;;;;;5051859;28;20039;-71
2021/03/22 01:24:22;;;;;;;3.92;1.50;;;6.20;57.10;;;;;;5053129;28;20052;-71
2021/03/22 01:26:50;;;;;;;4.95;1.35;;;6.20;57.20;;;;;;5065622;28;20146;-71
2021/03/22 01:29:28;;;;;;;2.95;1.20;;;6.20;57.30;;;;;;5072908;28;20075;-72
2021/03/22 01:31:58;;;;;;;5.05;2.10;;;6.20;57.40;;;;;;5069871;28;20033;-73
2021/03/22 01:34:26;;;;;;;2.42;1.20;;;6.10;57.30;;;;;;5056703;28;20116;-71
2021/03/22 01:36:52;;;;;;;3.65;1.50;;;6.20;57.40;;;;;;5066078;28;20082;-73
2021/03/22 01:39:24;;;;;;;3.63;1.50;;;6.10;57.50;;;;;;5073133;28;20411;-72
2021/03/22 01:42:14;;;;;;;4.25;1.40;;;6.10;57.80;;;;;;5069428;28;20110;-72
2021/03/22 01:44:45;;;;;;;3.78;1.67;;;6.10;57.90;;;;;;5070515;28;20031;-71
2021/03/22 01:47:17;;;;;;;8.45;2.20;;;6.10;58.00;;;;;;5069121;28;20035;-72
2021/03/22 01:49:53;;;;;;;4.00;1.42;;;6.00;58.10;;;;;;5072228;28;20078;-71
2021/03/22 01:52:21;;;;;;;3.95;1.63;;;6.00;58.30;;;;;;5068961;28;20035;-72
2021/03/22 01:54:49;;;;;;;4.03;1.80;;;6.00;58.90;;;;;;5072349;28;20029;-71
2021/03/22 01:57:30;;;;;;;3.88;1.60;;;6.00;58.80;;;;;;5047476;28;20036;-71
2021/03/22 02:00:28;;;;;;;4.05;1.38;;;6.00;58.80;;;;;;5087479;27;20768;-71
2021/03/22 02:03:10;;;;;;;4.28;1.42;;;6.00;59.00;;;;;;5071048;28;20036;-71
2021/03/22 02:05:38;;;;;;;6.38;1.80;;;5.90;59.10;;;;;;5085935;28;20043;-71
2021/03/22 02:08:37;;;;;;;3.55;1.52;;;5.90;59.40;;;;;;5071058;28;20024;-71
2021/03/22 02:11:05;;;;;;;6.47;1.58;;;6.00;59.60;;;;;;5005385;28;20114;-71
2021/03/22 02:13:35;;;;;;;3.38;1.70;;;6.00;59.80;;;;;;5050954;28;20040;-71
2021/03/22 02:16:23;;;;;;;6.28;1.60;;;5.90;60.40;;;;;;5062496;28;20550;-71
2021/03/22 02:19:10;;;;;;;5.45;2.20;;;5.90;60.70;;;;;;5068935;28;20040;-71
2021/03/22 02:22:07;;;;;;;7.85;1.75;;;5.90;61.00;;;;;;5065893;28;20120;-71
2021/03/22 02:25:01;;;;;;;4.88;1.92;;;5.90;61.00;;;;;;5049156;28;20033;-71
2021/03/22 02:28:04;;;;;;;6.15;1.95;;;5.90;61.30;;;;;;5068312;28;20060;-71
2021/03/22 02:30:43;;;;;;;5.80;1.83;;;5.90;61.70;;;;;;5065179;28;20100;-70
2021/03/22 02:33:36;;;;;;;6.88;1.95;;;5.80;61.70;;;;;;5056801;28;20030;-70
2021/03/22 02:36:09;;;;;;;3.78;1.50;;;5.80;62.00;;;;;;5044307;28;20032;-71
2021/03/22 02:38:53;;;;;;;7.45;2.33;;;5.70;63.20;;;;;;5068152;28;20122;-71
2021/03/22 02:41:37;;;;;;;4.60;1.90;;;5.70;63.00;;;;;;5063863;28;20066;-71
2021/03/22 02:44:24;;;;;;;6.45;1.95;;;5.70;63.10;;;;;;5053871;28;20033;-71
2021/03/22 02:46:57;;;;;;;6.15;1.77;;;5.80;63.50;;;;;;5029166;28;20116;-71
2021/03/22 02:49:23;;;;;;;5.00;1.58;;;5.70;63.80;;;;;;5030128;28;20025;-71
2021/03/22 02:52:00;;;;;;;3.40;1.60;;;5.70;64.20;;;;;;5063228;28;20040;-70
2021/03/22 02:54:55;;;;;;;7.35;1.80;;;5.70;64.60;;;;;;5063539;28;20033;-70
2021/03/22 02:57:47;;;;;;;8.32;1.80;;;5.60;65.50;;;;;;5028183;28;20113;-71
2021/03/22 03:00:24;;;;;;;5.95;2.08;;;5.60;65.30;;;;;;5035623;28;20762;-70
2021/03/22 03:02:53;;;;;;;6.60;2.05;;;5.50;66.20;;;;;;5067865;28;20025;-71
2021/03/22 03:05:23;;;;;;;4.43;2.55;;;5.50;66.10;;;;;;5059675;28;20047;-70
2021/03/22 03:07:48;;;;;;;9.00;2.00;;;5.40;67.50;;;;;;5067620;28;20025;-70
2021/03/22 03:10:16;;;;;;;6.10;2.22;;;5.40;67.40;;;;;;5056965;28;20128;-71
2021/03/22 03:12:42;;;;;;;9.50;2.10;;;5.40;67.50;;;;;;5042575;28;20500;-70
2021/03/22 03:15:09;;;;;;;7.75;2.42;;;5.40;67.60;;;;;;5035004;28;20040;-71
2021/03/22 03:17:35;;;;;;;9.82;1.92;;;5.40;67.60;;;;;;5033824;28;20037;-70
2021/03/22 03:20:04;;;;;;;6.25;1.70;;;5.30;68.60;;;;;;5014895;28;20038;-70
2021/03/22 03:22:30;;;;;;;8.77;2.35;;;5.30;69.20;;;;;;5034232;28;20021;-70
2021/03/22 03:24:55;;;;;;;5.68;1.98;;;5.20;69.00;;;;;;5015212;28;20047;-70
2021/03/22 03:27:21;;;;;;;9.00;3.22;;;5.30;69.40;;;;;;5036058;28;20025;-70
2021/03/22 03:29:46;;;;;;;8.93;2.22;;;5.40;69.10;;;;;;5051279;28;20025;-70
2021/03/22 03:32:15;;;;;;;6.68;2.22;;;5.30;69.70;;;;;;5053899;28;20052;-70
2021/03/22 03:34:41;;;;;;;6.93;2.70;;;5.30;70.00;;;;;;4999253;28;20061;-70
2021/03/22 03:37:07;;;;;;;7.78;3.47;;;5.30;69.90;;;;;;5052487;28;20114;-69
2021/03/22 03:39:32;;;;;;;8.13;2.00;;;5.30;70.40;;;;;;5053851;28;20037;-71
2021/03/22 03:41:58;;;;;;;5.70;2.20;;;5.30;70.30;;;;;;5050317;28;20025;-70
2021/03/22 03:44:23;;;;;;;7.07;2.15;;;5.30;70.40;;;;;;5043358;28;20037;-70
2021/03/22 03:46:49;;;;;;;7.95;2.13;;;5.30;70.60;;;;;;5050414;28;20021;-69
2021/03/22 03:49:14;;;;;;;6.35;2.53;;;5.30;71.00;;;;;;5053380;28;20537;-69
2021/03/22 03:51:41;;;;;;;8.75;1.98;;;5.30;71.20;;;;;;5051124;28;20029;-69
2021/03/22 03:54:07;;;;;;;8.73;2.38;;;5.30;71.30;;;;;;5053485;28;20029;-69
2021/03/22 03:56:33;;;;;;;10.90;2.58;;;5.30;71.30;;;;;;5050778;28;20017;-69
2021/03/22 03:58:59;;;;;;;10.60;2.33;;;5.30;71.40;;;;;;5040187;28;20056;-70
2021/03/22 04:01:25;;;;;;;9.38;2.28;;;5.30;71.40;;;;;;5031339;28;20117;-69
2021/03/22 04:03:51;;;;;;;7.10;2.25;;;5.30;71.60;;;;;;5050962;28;20473;-70
2021/03/22 04:06:23;;;;;;;11.40;2.30;;;5.40;72.10;;;;;;5050208;28;20036;-69
2021/03/22 04:08:52;;;;;;;6.18;2.20;;;5.30;72.00;;;;;;5053259;28;20032;-70
2021/03/22 04:11:30;;;;;;;9.77;2.20;;;5.30;72.10;;;;;;5050468;28;20067;-70
2021/03/22 04:13:57;;;;;;;7.00;2.45;;;5.30;72.40;;;;;;5046945;28;20120;-70
2021/03/22 04:16:24;;;;;;;7.53;2.33;;;5.30;72.70;;;;;;5032782;28;20128;-70
2021/03/22 04:18:50;;;;;;;7.63;2.38;;;5.20;73.50;;;;;;5052985;28;20493;-69
2021/03/22 04:21:19;;;;;;;9.15;2.17;;;5.10;73.30;;;;;;5049430;28;20078;-71
2021/03/22 04:23:46;;;;;;;9.88;2.50;;;5.10;73.90;;;;;;5052814;28;20111;-70
2021/03/22 04:26:12;;;;;;;5.80;2.25;;;5.10;74.50;;;;;;5047963;28;20020;-70
2021/03/22 04:28:38;;;;;;;8.02;2.30;;;5.00;74.70;;;;;;5053177;28;20087;-71
2021/03/22 04:31:04;;;;;;;8.70;2.35;;;5.00;74.70;;;;;;5048851;28;20473;-69
2021/03/22 04:33:29;;;;;;;5.60;2.00;;;5.00;74.90;;;;;;5043799;28;20036;-70
2021/03/22 04:35:55;;;;;;;7.22;2.40;;;5.00;75.30;;;;;;5031539;28;20416;-70
2021/03/22 04:38:21;;;;;;;9.50;2.47;;;5.00;75.70;;;;;;5032663;28;20558;-69
2021/03/22 04:40:47;;;;;;;8.38;2.75;;;5.00;76.00;;;;;;5038333;28;20104;-70
2021/03/22 04:43:13;;;;;;;6.47;2.38;;;5.00;76.20;;;;;;5052533;28;20035;-70
2021/03/22 04:45:39;;;;;;;5.93;2.60;;;5.10;76.70;;;;;;5048734;28;20033;-70
2021/03/22 04:48:05;;;;;;;7.95;2.50;;;5.00;76.60;;;;;;5052562;28;20115;-69
2021/03/22 04:50:30;;;;;;;9.52;2.42;;;5.00;77.20;;;;;;5049519;28;20056;-69
2021/03/22 04:52:57;;;;;;;7.35;2.50;;;4.90;77.60;;;;;;5052401;28;20067;-69
2021/03/22 04:55:24;;;;;;;7.90;2.50;;;4.90;77.50;;;;;;5045307;28;20037;-69
2021/03/22 04:57:50;;;;;;;15.13;3.35;;;4.90;78.60;;;;;;5030615;28;20060;-69
2021/03/22 05:00:32;;;;;;;8.35;2.85;;;4.90;78.40;;;;;;5030421;28;20060;-70
2021/03/22 05:02:57;;;;;;;8.52;2.67;;;4.90;78.80;;;;;;5032383;28;20022;-71
2021/03/22 05:05:25;;;;;;;9.07;2.85;;;4.90;78.80;;;;;;5037305;28;20108;-71
2021/03/22 05:07:51;;;;;;;9.70;2.53;;;4.90;79.00;;;;;;5045065;28;20053;-72
2021/03/22 05:10:25;;;;;;;7.13;3.33;;;5.00;79.60;;;;;;5045124;28;20535;-71
2021/03/22 05:12:51;;;;;;;9.63;2.90;;;4.90;80.00;;;;;;5038297;28;20036;-71
2021/03/22 05:15:17;;;;;;;10.15;2.33;;;4.90;80.40;;;;;;5029998;28;20393;-71
2021/03/22 05:17:43;;;;;;;10.05;3.58;;;4.90;80.50;;;;;;5031979;28;20464;-71
2021/03/22 05:20:17;;;;;;;11.90;3.28;;;4.90;80.70;;;;;;5031086;28;20020;-71
2021/03/22 05:22:42;;;;;;;14.77;3.57;;;4.90;81.70;;;;;;5028372;28;20029;-71
2021/03/22 05:25:08;;;;;;;10.55;4.15;;;4.80;81.60;;;;;;5032003;28;20078;-70
2021/03/22 05:27:34;;;;;;;11.95;3.30;;;4.90;82.80;;;;;;5013874;28;20044;-71
2021/03/22 05:30:00;;;;;;;11.60;3.47;;;4.90;82.40;;;;;;5032516;28;20025;-70
2021/03/22 05:32:31;;;;;;;18.40;5.07;;;4.80;82.50;;;;;;5051748;28;20586;-70
2021/03/22 05:34:57;;;;;;;11.95;3.25;;;4.90;82.50;;;;;;5029386;28;20486;-70
2021/03/22 05:37:23;;;;;;;10.25;3.38;;;4.90;82.60;;;;;;5031228;28;20072;-70
2021/03/22 05:39:49;;;;;;;14.13;3.22;;;4.90;82.80;;;;;;5016728;28;20032;-71
2021/03/22 05:42:45;;;;;;;11.45;3.10;;;4.90;82.80;;;;;;5051363;28;20116;-70
2021/03/22 05:45:50;;;;;;;8.95;3.10;;;5.00;83.10;;;;;;5028109;28;20103;-71
2021/03/22 05:48:41;;;;;;;11.88;3.20;;;5.00;82.90;;;;;;5031641;28;20041;-71
2021/03/22 05:51:24;;;;;;;8.68;3.28;;;5.00;83.20;;;;;;5041058;28;20041;-70
2021/03/22 05:54:04;;;;;;;7.93;3.13;;;5.00;83.80;;;;;;5051406;28;20033;-71
2021/03/22 05:56:44;;;;;;;13.35;3.50;;;5.00;83.40;;;;;;5041455;28;20606;-70
2021/03/22 05:59:26;;;;;;;15.40;4.88;;;5.00;83.90;;;;;;5051024;28;20057;-70
2021/03/22 06:02:00;;;;;;;9.35;3.40;;;5.10;83.80;;;;;;5048440;28;20389;-71
2021/03/22 06:04:36;;;;;;;12.10;4.18;;;5.10;84.30;;;;;;5048011;28;20039;-70
2021/03/22 06:07:04;;;;;;;11.98;3.95;;;5.10;84.30;;;;;;5013491;28;20398;-70
2021/03/22 06:09:36;;;;;;;17.17;3.97;;;5.10;84.20;;;;;;5015884;28;20030;-70
2021/03/22 06:12:28;;;;;;;10.52;3.70;;;5.10;84.40;;;;;;5015196;28;20026;-71
2021/03/22 06:15:27;;;;;;;13.18;4.32;;;5.20;84.40;;;;;;5030687;28;20033;-76
2021/03/22 06:18:33;;;;;;;9.20;4.07;;;5.30;84.40;;;;;;5044875;28;20359;-72
2021/03/22 06:21:06;;;;;;;11.23;4.07;;;5.30;84.10;;;;;;5017723;28;20397;-72
2021/03/22 06:23:36;;;;;;;12.82;4.35;;;5.40;84.10;;;;;;5031152;28;20378;-71
2021/03/22 06:26:04;;;;;;;13.30;4.65;;;5.40;84.40;;;;;;5042410;28;20522;-69
2021/03/22 06:28:32;;;;;;;14.27;4.15;;;5.40;84.70;;;;;;5031354;28;20018;-70
2021/03/22 06:31:05;;;;;;;13.07;4.07;;;5.40;84.50;;;;;;5029408;28;20461;-72
2021/03/22 06:33:40;;;;;;;11.27;3.72;;;5.40;84.60;;;;;;5031448;28;20548;-70
2021/03/22 06:36:08;;;;;;;13.32;4.30;;;5.40;84.90;;;;;;5029214;28;20038;-71
2021/03/22 06:38:33;;;;;;;12.80;3.92;;;5.40;84.50;;;;;;5031338;28;20504;-74
2021/03/22 06:41:19;;;;;;;13.02;4.15;;;5.50;84.50;;;;;;5039736;28;20021;-74
2021/03/22 06:43:53;;;;;;;18.73;3.75;;;5.50;84.90;;;;;;5031248;28;20490;-71
2021/03/22 06:46:19;;;;;;;14.52;4.10;;;5.50;85.10;;;;;;5039356;28;20033;-72
2021/03/22 06:49:00;;;;;;;9.88;2.97;;;5.60;84.90;;;;;;5034628;28;20037;-70
2021/03/22 06:51:26;;;;;;;11.82;3.42;;;5.60;84.50;;;;;;5041641;28;20545;-69
2021/03/22 06:53:56;;;;;;;11.18;3.58;;;5.60;84.70;;;;;;5034941;28;20116;-70
2021/03/22 06:56:28;;;;;;;15.68;4.22;;;5.70;84.50;;;;;;5046410;28;20025;-69
2021/03/22 06:59:11;;;;;;;9.35;3.13;;;5.80;84.30;;;;;;5053811;28;20730;-70
2021/03/22 07:01:38;;;;;;;12.48;3.53;;;5.90;84.10;;;;;;5045149;28;20111;-69
2021/03/22 07:04:21;;;;;;;15.80;3.97;;;5.90;83.80;;;;;;5052831;28;20029;-69
2021/03/22 07:07:15;;;;;;;14.20;4.22;;;6.00;83.50;;;;;;5031588;28;20069;-69
2021/03/22 07:09:44;;;;;;;8.95;3.33;;;6.10;83.00;;;;;;5033664;28;20486;-69
2021/03/22 07:12:24;;;;;;;11.20;3.45;;;6.10;82.70;;;;;;5048702;28;20026;-69
2021/03/22 07:14:50;;;;;;;11.18;3.47;;;6.10;83.10;;;;;;5032735;28;20041;-69
2021/03/22 07:17:22;;;;;;;11.13;3.83;;;6.20;82.50;;;;;;5018503;28;20083;-69
2021/03/22 07:20:06;;;;;;;8.60;3.97;;;6.30;82.10;;;;;;5032059;28;20029;-69
2021/03/22 07:22:33;;;;;;;9.02;2.90;;;6.40;81.90;;;;;;5021585;28;20082;-69
2021/03/22 07:25:21;;;;;;;8.25;3.03;;;6.50;81.60;;;;;;5034609;28;20038;-70
2021/03/22 07:27:51;;;;;;;11.13;3.75;;;6.60;81.00;;;;;;5028597;28;20037;-69
2021/03/22 07:30:41;;;;;;;13.55;3.47;;;6.60;80.30;;;;;;5036219;28;20056;-69
2021/03/22 07:33:42;;;;;;;9.60;3.50;;;6.70;80.00;;;;;;5047595;28;20033;-70
2021/03/22 07:36:21;;;;;;;9.93;3.42;;;6.80;79.40;;;;;;5041797;28;20043;-69
2021/03/22 07:39:06;;;;;;;13.63;3.55;;;6.90;79.00;;;;;;5043403;28;20046;-70
2021/03/22 07:41:57;;;;;;;13.38;4.43;;;6.90;78.50;;;;;;5047027;28;20029;-70
2021/03/22 07:44:39;;;;;;;9.90;3.67;;;7.00;78.60;;;;;;5035376;28;20127;-69
2021/03/22 07:47:25;;;;;;;14.52;3.72;;;7.00;77.70;;;;;;5038731;28;20239;-70
2021/03/22 07:50:06;;;;;;;7.78;3.30;;;7.20;77.10;;;;;;5044164;28;20386;-70
2021/03/22 07:52:42;;;;;;;7.85;2.78;;;7.20;75.00;;;;;;5028766;28;20030;-70
2021/03/22 07:55:25;;;;;;;7.90;2.83;;;7.30;75.60;;;;;;5019739;28;20021;-70
2021/03/22 07:58:20;;;;;;;9.50;3.47;;;7.40;75.00;;;;;;5034469;28;20117;-70
2021/03/22 08:01:21;;;;;;;7.32;2.63;;;7.50;74.20;;;;;;5039276;28;20031;-70
2021/03/22 08:04:28;;;;;;;9.20;2.80;;;7.60;73.10;;;;;;5034964;28;20035;-70
2021/03/22 08:07:29;;;;;;;8.20;2.80;;;7.60;72.00;;;;;;5040190;28;20032;-72
2021/03/22 08:10:40;;;;;;;10.15;3.10;;;7.60;68.50;;;;;;5034033;28;20037;-69
2021/03/22 08:13:39;;;;;;;5.40;2.65;;;7.60;67.90;;;;;;5023761;28;20112;-70
2021/03/22 08:16:22;;;;;;;7.80;2.65;;;7.60;69.00;;;;;;5036090;28;20033;-70
2021/03/22 08:18:57;;;;;;;10.63;2.50;;;7.70;68.00;;;;;;5020741;28;20520;-70
2021/03/22 08:21:40;;;;;;;5.28;2.65;;;7.70;67.90;;;;;;5018110;28;20033;-69
2021/03/22 08:24:10;;;;;;;7.20;2.90;;;7.70;66.90;;;;;;5014113;28;20103;-70
2021/03/22 08:27:00;;;;;;;6.22;2.38;;;7.80;67.50;;;;;;5032016;28;20044;-70
2021/03/22 08:29:34;;;;;;;15.05;2.95;;;7.90;67.40;;;;;;5028961;28;20363;-70
2021/03/22 08:32:12;;;;;;;6.90;3.45;;;7.90;65.80;;;;;;5046372;28;20029;-70
2021/03/22 08:34:53;;;;;;;8.55;2.47;;;8.00;65.30;;;;;;5031067;28;20026;-69
2021/03/22 08:37:30;;;;;;;6.07;2.50;;;7.90;61.40;;;;;;5013062;28;20033;-70
2021/03/22 08:40:02;;;;;;;7.25;2.40;;;8.00;62.40;;;;;;5038962;28;20063;-69
2021/03/22 08:42:36;;;;;;;5.65;2.10;;;8.00;62.30;;;;;;5014811;28;20032;-69
2021/03/22 08:45:15;;;;;;;6.63;1.90;;;8.10;62.40;;;;;;5033514;28;20461;-70
2021/03/22 08:47:53;;;;;;;8.32;2.55;;;8.10;60.10;;;;;;5046695;28;20021;-69
2021/03/22 08:50:28;;;;;;;2.00;1.42;;;8.20;59.60;;;;;;5035724;28;20037;-70
2021/03/22 08:52:58;;;;;;;6.65;1.98;;;8.20;60.20;;;;;;5043317;28;20040;-69
2021/03/22 08:55:40;;;;;;;3.88;1.80;;;8.30;58.50;;;;;;5036932;28;20021;-71
2021/03/22 08:58:08;;;;;;;3.85;1.52;;;8.30;57.90;;;;;;5045020;28;20048;-69
2021/03/22 09:00:45;;;;;;;4.35;1.60;;;8.30;55.30;;;;;;5037976;28;20031;-69
2021/03/22 09:03:14;;;;;;;4.32;1.60;;;8.30;54.70;;;;;;5045004;28;20060;-69
2021/03/22 09:05:42;;;;;;;6.72;2.92;;;8.30;56.20;;;;;;5040724;28;20101;-69
2021/03/22 09:08:22;;;;;;;5.15;2.00;;;8.40;55.50;;;;;;5022024;28;20178;-69
2021/03/22 09:10:50;;;;;;;5.40;2.20;;;8.40;56.60;;;;;;5025295;28;20021;-70
2021/03/22 09:13:27;;;;;;;4.47;2.25;;;8.50;56.60;;;;;;5031824;28;20037;-69
2021/03/22 09:16:06;;;;;;;8.00;2.90;;;8.60;57.00;;;;;;5030722;28;20037;-69
2021/03/22 09:18:32;;;;;;;6.22;2.70;;;8.80;56.90;;;;;;5031497;28;20033;-69
2021/03/22 09:20:57;;;;;;;5.47;2.78;;;8.80;56.30;;;;;;5036063;28;20090;-69
2021/03/22 09:23:32;;;;;;;3.97;1.92;;;8.90;55.20;;;;;;5031110;28;20417;-69
2021/03/22 09:26:02;;;;;;;6.00;2.10;;;9.00;54.80;;;;;;5024652;28;20030;-70
2021/03/22 09:28:27;;;;;;;7.47;1.90;;;9.00;52.50;;;;;;5032538;28;20029;-69
2021/03/22 09:31:16;;;;;;;5.75;2.00;;;9.00;53.40;;;;;;5026845;28;20038;-69
2021/03/22 09:33:57;;;;;;;3.60;1.75;;;9.10;54.30;;;;;;5029770;28;20029;-69
2021/03/22 09:36:46;;;;;;;3.80;1.60;;;9.20;54.10;;;;;;5038480;28;20032;-69
2021/03/22 09:39:15;;;;;;;5.10;1.75;;;9.20;50.50;;;;;;5018627;28;20046;-70
2021/03/22 09:42:03;;;;;;;3.53;1.65;;;9.30;51.80;;;;;;5038342;28;20030;-69
2021/03/22 09:44:36;;;;;;;3.00;1.50;;;9.30;51.90;;;;;;5031276;28;20033;-69
2021/03/22 09:47:13;;;;;;;2.78;1.40;;;9.40;52.10;;;;;;5011552;28;20034;-69
2021/03/22 09:49:57;;;;;;;5.57;2.30;;;9.40;51.30;;;;;;5022937;28;20072;-69
2021/03/22 09:52:41;;;;;;;5.97;2.45;;;9.40;51.10;;;;;;5030964;28;20030;-69
2021/03/22 09:55:22;;;;;;;7.65;2.05;;;9.50;51.70;;;;;;5039351;28;20112;-69
2021/03/22 09:57:48;;;;;;;4.28;1.42;;;9.60;51.40;;;;;;5051224;28;20435;-69
2021/03/22 10:00:26;;;;;;;4.05;1.65;;;9.60;49.90;;;;;;5036516;28;20037;-71
2021/03/22 10:03:27;;;;;;;4.15;1.45;;;9.50;49.10;;;;;;5031654;28;20041;-69
2021/03/22 10:05:53;;;;;;;5.20;1.63;;;9.50;47.70;;;;;;5022418;28;20076;-69
2021/03/22 10:08:28;;;;;;;4.78;2.00;;;9.50;49.10;;;;;;5025246;28;20076;-71
2021/03/22 10:10:55;;;;;;;7.38;1.67;;;9.50;49.70;;;;;;5021624;28;20028;-68
2021/03/22 10:13:43;;;;;;;4.93;1.65;;;9.60;50.20;;;;;;5034141;28;20044;-69
2021/03/22 10:16:23;;;;;;;5.20;1.58;;;9.70;50.10;;;;;;5031578;28;20036;-68
2021/03/22 10:18:50;;;;;;;3.67;1.60;;;9.80;49.60;;;;;;5030608;28;20029;-69
2021/03/22 10:21:28;;;;;;;5.05;1.38;;;9.90;48.80;;;;;;5032551;28;20044;-68
2021/03/22 10:23:56;;;;;;;3.63;1.70;;;10.00;48.40;;;;;;5036207;28;20029;-68
2021/03/22 10:26:38;;;;;;;5.85;1.92;;;10.00;47.60;;;;;;5027035;28;20065;-68
2021/03/22 10:29:20;;;;;;;6.68;1.40;;;10.00;47.00;;;;;;5032740;28;20059;-69
2021/03/22 10:32:09;;;;;;;2.58;1.00;;;10.00;46.90;;;;;;5031862;28;20037;-68
2021/03/22 10:35:16;;;;;;;4.00;1.33;;;10.00;45.40;;;;;;5013653;28;20033;-68
2021/03/22 10:37:51;;;;;;;5.15;1.60;;;9.90;45.40;;;;;;4989967;28;20164;-68
2021/03/22 10:40:28;;;;;;;4.10;1.35;;;9.90;46.90;;;;;;5020794;28;20561;-68
2021/03/22 10:42:57;;;;;;;4.57;1.33;;;10.00;46.20;;;;;;5017298;28;20104;-68
2021/03/22 10:45:34;;;;;;;2.67;1.00;;;10.10;44.30;;;;;;5032736;28;20382;-68
2021/03/22 10:48:01;;;;;;;3.03;0.90;;;10.10;45.10;;;;;;5034817;28;20029;-68
2021/03/22 10:50:28;;;;;;;3.00;1.15;;;10.10;45.40;;;;;;5035225;28;20038;-68
2021/03/22 10:53:03;;;;;;;6.68;1.40;;;10.20;45.90;;;;;;5033233;28;20044;-68
2021/03/22 10:55:31;;;;;;;5.57;1.38;;;10.30;45.00;;;;;;5028302;28;20045;-68
2021/03/22 10:57:59;;;;;;;3.05;1.15;;;10.30;44.40;;;;;;5054402;28;20032;-68
2021/03/22 11:00:36;;;;;;;7.40;1.30;;;10.40;44.80;;;;;;5032537;28;20095;-68
2021/03/22 11:03:05;;;;;;;4.15;1.40;;;10.50;44.70;;;;;;5033810;28;20033;-68
2021/03/22 11:05:38;;;;;;;2.67;1.20;;;10.50;44.20;;;;;;5036198;28;20664;-68
2021/03/22 11:08:27;;;;;;;3.35;1.13;;;10.50;43.00;;;;;;5034414;28;20048;-68
2021/03/22 11:11:07;;;;;;;4.28;1.30;;;10.50;42.40;;;;;;5024399;28;20033;-69
2021/03/22 11:13:36;;;;;;;1.70;1.20;;;10.40;41.50;;;;;;5033611;28;20037;-68
2021/03/22 11:16:05;;;;;;;3.60;1.50;;;10.40;42.30;;;;;;5033035;28;20025;-68
2021/03/22 11:18:31;;;;;;;3.78;1.08;;;10.30;41.00;;;;;;5034740;28;20128;-68
2021/03/22 11:20:58;;;;;;;3.75;1.48;;;10.20;40.70;;;;;;5046649;28;20381;-69
2021/03/22 11:23:30;;;;;;;2.33;1.40;;;10.30;42.10;;;;;;5047393;28;20029;-67
2021/03/22 11:25:57;;;;;;;2.13;1.30;;;10.30;42.60;;;;;;5040520;28;20422;-67
2021/03/22 11:28:29;;;;;;;2.72;1.40;;;10.40;43.50;;;;;;5014374;28;20029;-68
2021/03/22 11:30:54;;;;;;;2.60;1.20;;;10.50;44.60;;;;;;5023610;28;20386;-68
2021/03/22 11:33:35;;;;;;;2.70;1.23;;;10.60;43.40;;;;;;5033498;28;20029;-67
2021/03/22 11:36:17;;;;;;;3.72;1.17;;;10.70;43.20;;;;;;5035143;28;20025;-68
2021/03/22 11:39:19;;;;;;;5.45;1.50;;;10.70;42.70;;;;;;5034026;28;20080;-68
2021/03/22 11:42:00;;;;;;;4.72;1.20;;;10.80;42.40;;;;;;5042288;28;20051;-68
2021/03/22 11:44:38;;;;;;;2.92;1.13;;;10.80;42.30;;;;;;5033187;28;20049;-68
2021/03/22 11:47:29;;;;;;;2.60;1.10;;;10.80;42.10;;;;;;5049959;28;20025;-68
2021/03/22 11:49:57;;;;;;;3.10;1.23;;;10.80;42.00;;;;;;5037166;28;20141;-68
2021/03/22 11:52:31;;;;;;;4.07;1.30;;;10.90;42.30;;;;;;5033333;28;20029;-68
2021/03/22 11:55:07;;;;;;;2.45;1.33;;;11.00;42.00;;;;;;5038744;28;20435;-68
2021/03/22 11:57:51;;;;;;;1.95;0.95;;;11.10;41.80;;;;;;5053658;28;20118;-68
2021/03/22 12:00:19;;;;;;;1.83;0.95;;;11.20;42.00;;;;;;5038595;28;20497;-67
2021/03/22 12:02:49;;;;;;;2.95;1.23;;;11.20;41.70;;;;;;5035720;28;20099;-69
2021/03/22 12:05:33;;;;;;;6.53;1.80;;;11.20;41.40;;;;;;5031847;28;20025;-68
2021/03/22 12:07:59;;;;;;;2.85;1.17;;;11.20;42.20;;;;;;5015510;28;20524;-69
2021/03/22 12:10:34;;;;;;;3.10;1.17;;;11.20;42.30;;;;;;5037219;28;20397;-69
2021/03/22 12:13:01;;;;;;;4.20;1.20;;;11.20;41.50;;;;;;5042045;28;20026;-69
2021/03/22 12:15:28;;;;;;;2.45;1.27;;;11.10;41.00;;;;;;5037309;28;20397;-69
2021/03/22 12:18:02;;;;;;;2.75;1.17;;;11.10;40.60;;;;;;5035499;28;20454;-68
2021/03/22 12:20:31;;;;;;;2.60;1.33;;;11.10;41.50;;;;;;5033026;28;20519;-69
2021/03/22 12:22:58;;;;;;;2.42;1.20;;;11.10;41.70;;;;;;4995441;28;20112;-69
2021/03/22 12:25:29;;;;;;;6.57;1.40;;;11.20;41.80;;;;;;5014720;28;20418;-69
2021/03/22 12:27:55;;;;;;;3.05;1.30;;;11.30;41.60;;;;;;5012885;28;20014;-70
2021/03/22 12:30:23;;;;;;;2.33;1.23;;;11.30;41.50;;;;;;5033451;28;20466;-70
2021/03/22 12:32:49;;;;;;;3.92;1.15;;;11.40;42.20;;;;;;5034236;28;20036;-70
2021/03/22 12:35:23;;;;;;;4.82;1.45;;;11.50;41.80;;;;;;5033409;28;20408;-71
2021/03/22 12:37:48;;;;;;;3.63;1.33;;;11.50;41.10;;;;;;5020850;28;20032;-70
2021/03/22 12:40:15;;;;;;;3.63;1.30;;;11.50;41.90;;;;;;5035945;28;20436;-70
2021/03/22 12:42:43;;;;;;;4.97;1.35;;;11.60;41.30;;;;;;5051970;28;20055;-70
2021/03/22 12:45:17;;;;;;;3.83;1.30;;;11.60;41.10;;;;;;5027384;28;20022;-70
2021/03/22 12:47:43;;;;;;;5.82;2.10;;;11.70;40.90;;;;;;5027220;28;20021;-71
2021/03/22 12:50:23;;;;;;;2.80;1.10;;;11.70;40.10;;;;;;5033084;28;20032;-74
2021/03/22 12:52:51;;;;;;;4.70;1.40;;;11.80;40.50;;;;;;5052726;28;20373;-71
2021/03/22 12:55:18;;;;;;;4.82;1.40;;;11.90;40.30;;;;;;5025819;28;20117;-70
2021/03/22 12:57:44;;;;;;;2.42;1.13;;;11.90;40.10;;;;;;5012719;28;20033;-71
2021/03/22 13:00:11;;;;;;;5.05;1.70;;;11.90;40.30;;;;;;5028895;28;20034;-70
2021/03/22 13:02:38;;;;;;;3.17;1.45;;;11.90;39.80;;;;;;5032638;28;20101;-69
2021/03/22 13:05:12;;;;;;;3.10;1.50;;;11.90;40.50;;;;;;5029922;28;20033;-70
2021/03/22 13:07:38;;;;;;;;;;;11.90;40.30;;;;;;5031831;28;20474;-71
2021/03/22 13:10:04;;;;;;;2.90;1.30;;;12.00;38.90;;;;;;5015700;28;19908;-71
2021/03/22 13:12:32;;;;;;;2.67;1.33;;;12.00;40.50;;;;;;5041111;28;20028;-70
2021/03/22 13:14:58;;;;;;;3.45;1.40;;;12.10;39.90;;;;;;5032405;28;20034;-69
2021/03/22 13:17:35;;;;;;;5.22;1.80;;;12.20;39.20;;;;;;5043845;28;20071;-69
2021/03/22 13:20:04;;;;;;;5.53;2.05;;;12.10;38.70;;;;;;5032531;28;20042;-69
2021/03/22 13:22:31;;;;;;;3.97;1.27;;;12.10;39.70;;;;;;5043190;28;20026;-70
2021/03/22 13:24:57;;;;;;;4.60;1.58;;;12.20;39.60;;;;;;5031909;28;20037;-70
2021/03/22 13:27:23;;;;;;;4.93;1.60;;;12.30;39.60;;;;;;5045130;28;20074;-67